createdAt,value
2022-10-05T00:01:28.587Z,9.19
2022-10-05T00:04:07.986Z,9.21
2022-10-05T00:06:38.913Z,9.22
2022-10-05T00:09:16.737Z,9.23
2022-10-05T00:11:49.047Z,9.25
2022-10-05T00:14:21.577Z,9.27
2022-10-05T00:16:52.856Z,9.30
2022-10-05T00:19:29.987Z,9.31
2022-10-05T00:22:04.036Z,9.32
2022-10-05T00:24:34.963Z,9.34
2022-10-05T00:27:19.193Z,9.35
2022-10-05T00:29:51.743Z,9.37
2022-10-05T00:32:22.567Z,9.38
2022-10-05T00:34:53.434Z,9.40
2022-10-05T00:37:24.348Z,9.40
2022-10-05T00:39:55.333Z,9.41
2022-10-05T00:42:40.629Z,9.41
2022-10-05T00:45:18.831Z,9.42
2022-10-05T00:48:02.939Z,9.41
2022-10-05T00:51:09.258Z,9.41
2022-10-05T00:53:42.825Z,9.41
2022-10-05T00:56:30.527Z,9.42
2022-10-05T00:59:13.183Z,9.43
2022-10-05T01:01:52.168Z,9.44
2022-10-05T01:04:29.693Z,9.46
2022-10-05T01:07:13.632Z,9.48
2022-10-05T01:09:51.144Z,9.50
2022-10-05T01:12:29.154Z,9.51
2022-10-05T01:15:08.896Z,9.53
2022-10-05T01:17:46.287Z,9.56
2022-10-05T01:20:31.087Z,9.58
2022-10-05T01:23:23.081Z,9.60
2022-10-05T01:26:04.983Z,9.62
2022-10-05T01:28:39.357Z,9.64
2022-10-05T01:31:19.091Z,9.66
2022-10-05T01:34:00.114Z,9.68
2022-10-05T01:36:38.944Z,9.69
2022-10-05T01:39:18.843Z,9.71
2022-10-05T01:42:00.400Z,9.71
2022-10-05T01:44:38.931Z,9.72
2022-10-05T01:47:15.949Z,9.73
2022-10-05T01:49:55.081Z,9.74
2022-10-05T01:52:36.785Z,9.75
2022-10-05T01:55:19.846Z,9.76
2022-10-05T01:58:08.774Z,9.77
2022-10-05T02:00:50.836Z,9.78
2022-10-05T02:03:26.450Z,9.80
2022-10-05T02:06:01.296Z,9.81
2022-10-05T02:08:39.135Z,9.83
2022-10-05T02:11:13.333Z,9.83
2022-10-05T02:13:48.546Z,9.82
2022-10-05T02:16:25.867Z,9.82
2022-10-05T02:19:01.797Z,9.81
2022-10-05T02:21:37.444Z,9.80
2022-10-05T02:24:14.016Z,9.78
2022-10-05T02:26:46.748Z,9.77
2022-10-05T02:29:22.743Z,9.76
2022-10-05T02:31:59.213Z,9.74
2022-10-05T02:34:32.499Z,9.73
2022-10-05T02:37:23.106Z,9.72
2022-10-05T02:40:01.253Z,9.72
2022-10-05T02:42:40.606Z,9.70
2022-10-05T02:45:20.563Z,9.70
2022-10-05T02:47:59.510Z,9.70
2022-10-05T02:50:38.715Z,9.69
2022-10-05T02:53:21.555Z,9.68
2022-10-05T02:56:05.440Z,9.68
2022-10-05T02:58:45.578Z,9.68
2022-10-05T03:01:24.462Z,9.68
2022-10-05T03:04:06.355Z,9.68
2022-10-05T03:06:48.038Z,9.68
2022-10-05T03:09:21.951Z,9.68
2022-10-05T03:12:03.430Z,9.68
2022-10-05T03:14:40.892Z,9.68
2022-10-05T03:17:19.167Z,9.66
2022-10-05T03:20:05.846Z,9.67
2022-10-05T03:22:48.197Z,9.68
2022-10-05T03:25:43.756Z,9.68
2022-10-05T03:28:20.538Z,9.69
2022-10-05T03:31:01.537Z,9.70
2022-10-05T03:33:43.973Z,9.71
2022-10-05T03:36:26.405Z,9.71
2022-10-05T03:39:04.229Z,9.72
2022-10-05T03:41:43.192Z,9.72
2022-10-05T03:44:45.762Z,9.72
2022-10-05T03:47:26.691Z,9.73
2022-10-05T03:50:32.789Z,9.73
2022-10-05T03:53:07.875Z,9.72
2022-10-05T03:55:47.050Z,9.73
2022-10-05T03:58:21.927Z,9.72
2022-10-05T04:01:00.298Z,9.72
2022-10-05T04:03:36.162Z,9.72
2022-10-05T04:06:13.814Z,9.72
2022-10-05T04:08:51.791Z,9.72
2022-10-05T04:11:31.200Z,9.71
2022-10-05T04:14:07.577Z,9.70
2022-10-05T04:16:45.999Z,9.71
2022-10-05T04:19:23.184Z,9.71
2022-10-05T04:22:00.467Z,9.71
2022-10-05T04:24:36.181Z,9.70
2022-10-05T04:27:12.518Z,9.70
2022-10-05T04:29:47.290Z,9.70
2022-10-05T04:32:37.909Z,9.69
2022-10-05T04:35:27.247Z,9.69
2022-10-05T04:38:11.845Z,9.68
2022-10-05T04:40:59.755Z,9.66
2022-10-05T04:43:41.164Z,9.65
2022-10-05T04:46:29.324Z,9.64
2022-10-05T04:49:22.369Z,9.63
2022-10-05T04:52:01.289Z,9.61
2022-10-05T04:54:45.552Z,9.62
2022-10-05T04:57:24.982Z,9.60
2022-10-05T05:00:07.331Z,9.59
2022-10-05T05:02:51.913Z,9.58
2022-10-05T05:05:33.527Z,9.57
2022-10-05T05:08:18.379Z,9.57
2022-10-05T05:11:09.555Z,9.58
2022-10-05T05:14:06.025Z,9.60
2022-10-05T05:16:42.429Z,9.63
2022-10-05T05:19:37.595Z,9.67
2022-10-05T05:22:15.516Z,9.71
2022-10-05T05:25:02.371Z,9.74
2022-10-05T05:27:55.633Z,9.78
2022-10-05T05:30:35.435Z,9.82
2022-10-05T05:33:20.500Z,9.86
2022-10-05T05:36:19.481Z,9.88
2022-10-05T05:39:08.921Z,9.92
2022-10-05T05:41:44.827Z,9.95
2022-10-05T05:44:25.389Z,9.97
2022-10-05T05:47:04.350Z,9.97
2022-10-05T05:49:51.419Z,9.98
2022-10-05T05:52:28.848Z,10.00
2022-10-05T05:55:06.273Z,10.02
2022-10-05T05:57:42.667Z,10.04
2022-10-05T06:00:22.926Z,10.06
2022-10-05T06:03:09.680Z,10.10
2022-10-05T06:05:46.024Z,10.14
2022-10-05T06:08:22.830Z,10.19
2022-10-05T06:11:11.661Z,10.26
2022-10-05T06:13:53.695Z,10.33
2022-10-05T06:16:39.050Z,10.40
2022-10-05T06:19:15.860Z,10.48
2022-10-05T06:21:59.102Z,10.58
2022-10-05T06:24:38.051Z,10.68
2022-10-05T06:27:27.923Z,10.75
2022-10-05T06:30:09.058Z,10.83
2022-10-05T06:33:01.352Z,10.89
2022-10-05T06:35:51.647Z,10.99
2022-10-05T06:38:54.873Z,11.09
2022-10-05T06:41:38.482Z,11.19
2022-10-05T06:44:17.365Z,11.29
2022-10-05T06:47:07.717Z,11.34
2022-10-05T06:50:08.657Z,11.44
2022-10-05T06:54:01.996Z,11.54
2022-10-05T07:05:52.837Z,11.71
2022-10-05T07:09:17.945Z,11.77
2022-10-05T07:12:25.678Z,11.81
2022-10-05T07:15:44.277Z,11.89
2022-10-05T07:18:44.059Z,12.03
2022-10-05T07:22:09.538Z,12.21
2022-10-05T07:25:03.535Z,12.42
2022-10-05T07:28:38.746Z,12.63
2022-10-05T07:31:14.983Z,13.14
2022-10-05T07:54:18.996Z,15.21
2022-10-05T07:56:55.294Z,15.22
2022-10-05T07:59:31.563Z,15.21
2022-10-05T08:02:10.516Z,15.22
2022-10-05T08:04:46.313Z,15.30
2022-10-05T08:07:17.504Z,15.71
2022-10-05T08:09:50.818Z,16.04
2022-10-05T08:12:37.225Z,16.20
2022-10-05T08:15:14.690Z,16.24
2022-10-05T08:17:54.444Z,16.21
2022-10-05T08:20:40.123Z,16.23
2022-10-05T08:23:20.621Z,16.71
2022-10-05T08:26:07.882Z,17.57
2022-10-05T08:28:39.008Z,18.00
2022-10-05T08:31:20.151Z,18.04
2022-10-05T08:33:58.939Z,17.97
2022-10-05T08:36:53.714Z,17.89
2022-10-05T08:39:26.920Z,17.80
2022-10-05T08:42:35.231Z,17.76
2022-10-05T08:45:23.823Z,17.70
2022-10-05T08:48:30.558Z,17.71
2022-10-05T08:51:42.237Z,17.73
2022-10-05T08:55:30.023Z,17.73
2022-10-05T08:58:21.596Z,17.69
2022-10-05T09:01:01.908Z,17.66
2022-10-05T09:03:51.944Z,17.68
2022-10-05T09:06:51.057Z,17.73
2022-10-05T09:10:07.868Z,17.79
2022-10-05T09:13:18.072Z,17.87
2022-10-05T09:16:17.198Z,17.93
2022-10-05T09:19:06.469Z,17.97
2022-10-05T09:21:41.895Z,17.95
2022-10-05T09:24:27.971Z,17.92
2022-10-05T09:27:08.076Z,17.87
2022-10-05T09:30:22.745Z,17.84
2022-10-05T09:33:12.966Z,17.83
2022-10-05T09:36:21.678Z,17.83
2022-10-05T09:39:21.201Z,17.82
2022-10-05T09:42:08.061Z,17.84
2022-10-05T09:44:56.074Z,17.88
2022-10-05T09:48:03.414Z,17.91
2022-10-05T09:51:08.720Z,17.97
2022-10-05T09:53:54.635Z,18.02
2022-10-05T09:57:03.735Z,18.11
2022-10-05T10:00:03.105Z,18.23
2022-10-05T10:03:16.034Z,18.38
2022-10-05T10:06:20.444Z,18.50
2022-10-05T10:09:02.365Z,18.59
2022-10-05T10:11:44.357Z,18.70
2022-10-05T10:14:48.955Z,18.80
2022-10-05T10:17:43.423Z,18.96
2022-10-05T10:20:27.664Z,19.13
2022-10-05T10:23:20.479Z,19.27
2022-10-05T10:26:30.425Z,19.44
2022-10-05T10:29:30.717Z,19.60
2022-10-05T10:32:18.168Z,19.74
2022-10-05T10:35:15.556Z,19.89
2022-10-05T10:38:19.543Z,19.88
2022-10-05T10:41:20.810Z,19.87
2022-10-05T10:44:19.285Z,19.90
2022-10-05T10:46:53.853Z,19.98
2022-10-05T10:54:31.140Z,20.06
2022-10-05T10:57:09.523Z,20.07
2022-10-05T11:00:20.774Z,20.11
2022-10-05T11:03:27.324Z,20.13
2022-10-05T11:06:24.907Z,20.17
2022-10-05T11:09:23.624Z,20.21
2022-10-05T11:12:39.608Z,20.16
2022-10-05T11:15:35.326Z,20.08
2022-10-05T11:18:15.730Z,19.98
2022-10-05T11:21:04.422Z,19.86
2022-10-05T11:23:57.648Z,19.70
2022-10-05T11:26:46.545Z,19.58
2022-10-05T11:29:44.139Z,19.50
2022-10-05T11:32:35.916Z,19.49
2022-10-05T11:35:25.288Z,19.46
2022-10-05T11:38:09.301Z,19.41
2022-10-05T11:41:07.053Z,19.37
2022-10-05T11:44:09.946Z,19.33
2022-10-05T11:46:48.639Z,19.24
2022-10-05T11:49:27.230Z,19.17
2022-10-05T11:52:05.893Z,19.14
2022-10-05T11:57:53.674Z,19.01
2022-10-05T12:00:24.083Z,18.97
2022-10-05T12:03:21.632Z,18.95
2022-10-05T12:06:04.080Z,18.92
2022-10-05T12:08:44.614Z,18.90
2022-10-05T12:11:36.788Z,18.89
2022-10-05T12:14:16.404Z,18.84
2022-10-05T12:16:50.679Z,18.83
2022-10-05T12:19:29.195Z,18.82
2022-10-05T12:22:03.592Z,18.80
2022-10-05T12:25:01.259Z,18.77
2022-10-05T12:27:36.729Z,18.74
2022-10-05T12:30:13.916Z,18.71
2022-10-05T12:32:50.117Z,18.64
2022-10-05T12:35:43.531Z,18.60
2022-10-05T12:38:19.726Z,18.56
2022-10-05T12:40:53.726Z,18.54
2022-10-05T12:43:31.855Z,18.52
2022-10-05T12:46:17.109Z,18.48
2022-10-05T12:49:04.834Z,18.42
2022-10-05T12:51:40.481Z,18.36
2022-10-05T12:54:22.079Z,18.32
2022-10-05T12:56:55.511Z,18.27
2022-10-05T12:59:40.642Z,18.21
2022-10-05T13:02:21.348Z,18.15
2022-10-05T13:04:56.469Z,18.13
2022-10-05T13:07:35.163Z,18.12
2022-10-05T13:10:24.511Z,18.08
2022-10-05T13:13:05.126Z,18.01
2022-10-05T13:15:41.190Z,17.96
2022-10-05T13:18:18.617Z,17.92
2022-10-05T13:20:59.092Z,17.89
2022-10-05T13:23:38.667Z,17.87
2022-10-05T13:26:11.299Z,17.86
2022-10-05T13:28:48.130Z,17.83
2022-10-05T13:31:22.346Z,17.78
2022-10-05T13:34:06.048Z,17.75
2022-10-05T13:36:43.998Z,17.69
2022-10-05T13:39:30.511Z,17.65
2022-10-05T13:42:05.490Z,17.58
2022-10-05T13:44:42.983Z,17.56
2022-10-05T13:47:20.415Z,17.53
2022-10-05T13:49:54.845Z,17.48
2022-10-05T13:52:47.270Z,17.43
2022-10-05T13:55:33.669Z,17.40
2022-10-05T13:58:10.555Z,17.36
2022-10-05T14:00:48.034Z,17.32
2022-10-05T14:03:29.605Z,17.27
2022-10-05T14:05:59.425Z,17.21
2022-10-05T14:08:31.926Z,17.15
2022-10-05T14:11:19.573Z,17.10
2022-10-05T14:13:49.911Z,17.04
2022-10-05T14:16:24.341Z,16.99
2022-10-05T14:18:57.109Z,16.93
2022-10-05T14:21:27.038Z,16.88
2022-10-05T14:23:56.645Z,16.83
2022-10-05T14:26:35.969Z,16.79
2022-10-05T14:29:18.734Z,16.76
2022-10-05T14:31:58.142Z,16.72
2022-10-05T14:34:42.318Z,16.68
2022-10-05T14:37:19.833Z,16.64
2022-10-05T14:39:50.024Z,16.61
2022-10-05T14:42:22.425Z,16.59
2022-10-05T14:45:01.029Z,16.57
2022-10-05T14:47:40.417Z,16.53
2022-10-05T14:50:18.279Z,16.51
2022-10-05T14:53:00.913Z,16.47
2022-10-05T14:55:48.192Z,16.43
2022-10-05T14:58:32.681Z,16.40
2022-10-05T15:01:12.212Z,16.36
2022-10-05T15:03:50.920Z,16.30
2022-10-05T15:06:29.195Z,16.27
2022-10-05T15:09:17.710Z,16.23
2022-10-05T15:11:52.551Z,16.19
2022-10-05T15:14:25.103Z,16.15
2022-10-05T15:16:57.194Z,16.12
2022-10-05T15:19:31.242Z,16.08
2022-10-05T15:22:18.125Z,16.05
2022-10-05T15:25:00.356Z,16.01
2022-10-05T15:27:37.247Z,15.96
2022-10-05T15:30:12.023Z,15.93
2022-10-05T15:32:51.575Z,15.90
2022-10-05T15:35:45.221Z,15.86
2022-10-05T15:38:20.568Z,15.82
2022-10-05T15:41:09.817Z,15.80
2022-10-05T15:43:49.750Z,15.76
2022-10-05T15:46:25.404Z,15.73
2022-10-05T15:49:08.452Z,15.70
2022-10-05T15:51:47.206Z,15.66
2022-10-05T15:54:43.543Z,15.63
2022-10-05T15:57:21.102Z,15.61
2022-10-05T16:00:01.283Z,15.58
2022-10-05T16:02:41.146Z,15.55
2022-10-05T16:05:45.474Z,15.52
2022-10-05T16:08:48.462Z,15.47
2022-10-05T16:11:36.810Z,15.45
2022-10-05T16:14:16.819Z,15.42
2022-10-05T16:16:58.132Z,15.39
2022-10-05T16:19:50.133Z,15.36
2022-10-05T16:22:25.464Z,15.33
2022-10-05T16:25:08.218Z,15.31
2022-10-05T16:27:49.786Z,15.29
2022-10-05T16:30:20.734Z,15.28
2022-10-05T16:32:56.545Z,15.26
2022-10-05T16:35:34.776Z,15.24
2022-10-05T16:38:16.617Z,15.22
2022-10-05T16:40:59.643Z,15.20
2022-10-05T16:43:41.442Z,15.18
2022-10-05T16:46:22.001Z,15.16
2022-10-05T16:49:01.825Z,15.13
2022-10-05T16:51:39.627Z,15.11
2022-10-05T16:54:18.709Z,15.09
2022-10-05T16:56:53.945Z,15.07
2022-10-05T17:00:13.479Z,15.05
2022-10-05T17:03:04.696Z,15.02
2022-10-05T17:05:58.532Z,15.00
2022-10-05T17:08:45.168Z,14.98
2022-10-05T17:11:32.332Z,14.96
2022-10-05T17:14:19.599Z,14.95
2022-10-05T17:17:04.181Z,14.94
2022-10-05T17:19:47.106Z,14.93
2022-10-05T17:22:25.610Z,14.92
2022-10-05T17:25:08.033Z,14.91
2022-10-05T17:27:52.714Z,14.90
2022-10-05T17:30:37.972Z,14.89
2022-10-05T17:33:21.988Z,14.89
2022-10-05T17:36:11.712Z,14.88
2022-10-05T17:38:50.342Z,14.85
2022-10-05T17:41:21.668Z,14.84
2022-10-05T17:44:26.799Z,14.82
2022-10-05T17:46:59.800Z,14.81
2022-10-05T17:50:09.417Z,14.80
2022-10-05T17:52:59.987Z,14.78
2022-10-05T17:55:43.070Z,14.77
2022-10-05T17:59:02.646Z,14.75
2022-10-05T18:01:37.851Z,14.72
2022-10-05T18:04:49.749Z,14.70
2022-10-05T18:07:25.948Z,14.69
2022-10-05T18:09:57.640Z,14.67
2022-10-05T18:12:38.403Z,14.65
2022-10-05T18:15:46.079Z,14.62
2022-10-05T18:18:55.431Z,14.60
2022-10-05T18:21:38.088Z,14.57
2022-10-05T18:24:44.716Z,14.56
2022-10-05T18:27:31.129Z,14.54
2022-10-05T18:30:13.450Z,14.52
2022-10-05T18:33:10.892Z,14.51
2022-10-05T18:35:52.344Z,14.49
2022-10-05T18:38:43.276Z,14.48
2022-10-05T18:41:22.546Z,14.47
2022-10-05T18:44:05.600Z,14.46
2022-10-05T18:46:44.612Z,14.46
2022-10-05T18:49:29.278Z,14.46
2022-10-05T18:52:09.685Z,14.46
2022-10-05T18:54:50.639Z,14.45
2022-10-05T18:57:39.833Z,14.46
2022-10-05T19:00:17.048Z,14.46
2022-10-05T19:02:51.583Z,14.45
2022-10-05T19:05:47.970Z,14.47
2022-10-05T19:08:33.236Z,14.47
2022-10-05T19:11:17.674Z,14.47
2022-10-05T19:13:56.334Z,14.47
2022-10-05T19:16:41.364Z,14.46
2022-10-05T19:19:42.173Z,14.45
2022-10-05T19:22:18.955Z,14.44
2022-10-05T19:25:03.809Z,14.42
2022-10-05T19:27:40.957Z,14.42
2022-10-05T19:30:19.055Z,14.42
2022-10-05T19:33:07.271Z,14.41
2022-10-05T19:35:47.943Z,14.41
2022-10-05T19:38:26.040Z,14.39
2022-10-05T19:41:12.318Z,14.38
2022-10-05T19:44:05.939Z,14.39
2022-10-05T19:46:49.337Z,14.38
2022-10-05T19:49:37.151Z,14.37
2022-10-05T19:52:12.574Z,14.35
2022-10-05T19:54:42.309Z,14.33
2022-10-05T19:57:17.573Z,14.31
2022-10-05T19:59:49.931Z,14.30
2022-10-05T20:02:25.664Z,14.28
2022-10-05T20:04:56.079Z,14.25
2022-10-05T20:07:24.213Z,14.22
2022-10-05T20:09:58.665Z,14.21
2022-10-05T20:12:51.397Z,14.19
2022-10-05T20:15:41.176Z,14.17
2022-10-05T20:19:05.386Z,14.14
2022-10-05T20:21:39.467Z,14.13
2022-10-05T20:24:09.877Z,14.11
2022-10-05T20:27:00.555Z,14.09
2022-10-05T20:29:29.502Z,14.07
2022-10-05T20:31:57.854Z,14.05
2022-10-05T20:34:26.180Z,14.04
2022-10-05T20:36:54.325Z,14.03
2022-10-05T20:39:22.564Z,14.00
2022-10-05T20:41:50.991Z,13.98
2022-10-05T20:44:19.179Z,13.95
2022-10-05T20:46:47.681Z,13.92
2022-10-05T20:49:15.881Z,13.90
2022-10-05T20:51:44.076Z,13.87
2022-10-05T20:54:12.293Z,13.83
2022-10-05T20:56:42.015Z,13.81
2022-10-05T20:59:10.156Z,13.78
2022-10-05T21:01:38.411Z,13.75
2022-10-05T21:04:09.023Z,13.71
2022-10-05T21:06:37.242Z,13.69
2022-10-05T21:09:08.408Z,13.66
2022-10-05T21:11:36.704Z,13.64
2022-10-05T21:14:05.903Z,13.61
2022-10-05T21:16:37.475Z,13.58
2022-10-05T21:19:06.339Z,13.56
2022-10-05T21:21:34.956Z,13.53
2022-10-05T21:24:03.960Z,13.50
2022-10-05T21:26:32.584Z,13.48
2022-10-05T21:29:01.961Z,13.45
2022-10-05T21:31:30.523Z,13.42
2022-10-05T21:33:58.807Z,13.40
2022-10-05T21:36:27.120Z,13.37
2022-10-05T21:38:55.920Z,13.34
2022-10-05T21:41:24.469Z,13.31
2022-10-05T21:43:53.164Z,13.26
2022-10-05T21:46:25.814Z,13.23
2022-10-05T21:48:55.357Z,13.18
2022-10-05T21:51:26.560Z,13.14
2022-10-05T21:53:58.116Z,13.10
2022-10-05T21:56:31.330Z,13.07
2022-10-05T21:59:00.944Z,13.04
2022-10-05T22:01:29.181Z,13.01
2022-10-05T22:03:57.421Z,12.99
2022-10-05T22:06:25.667Z,12.96
2022-10-05T22:08:55.686Z,12.94
2022-10-05T22:11:24.120Z,12.90
2022-10-05T22:13:54.329Z,12.87
2022-10-05T22:16:26.496Z,12.84
2022-10-05T22:18:55.037Z,12.81
2022-10-05T22:21:23.241Z,12.79
2022-10-05T22:23:51.352Z,12.77
2022-10-05T22:26:22.847Z,12.74
2022-10-05T22:28:54.913Z,12.72
2022-10-05T22:31:23.239Z,12.70
2022-10-05T22:33:52.255Z,12.66
2022-10-05T22:36:21.388Z,12.64
2022-10-05T22:38:49.576Z,12.63
2022-10-05T22:41:17.953Z,12.60
2022-10-05T22:43:49.531Z,12.58
2022-10-05T22:46:18.384Z,12.56
2022-10-05T22:48:46.992Z,12.53
2022-10-05T22:51:15.266Z,12.50
2022-10-05T22:53:43.453Z,12.49
2022-10-05T22:56:13.120Z,12.48
2022-10-05T22:58:42.864Z,12.46
2022-10-05T23:01:13.407Z,12.45
2022-10-05T23:03:42.113Z,12.44
2022-10-05T23:06:12.999Z,12.43
2022-10-05T23:08:42.025Z,12.42
2022-10-05T23:11:12.222Z,12.41
2022-10-05T23:13:40.653Z,12.40
2022-10-05T23:16:10.662Z,12.40
2022-10-05T23:18:39.621Z,12.39
2022-10-05T23:21:09.340Z,12.37
2022-10-05T23:23:38.552Z,12.36
2022-10-05T23:26:08.473Z,12.35
2022-10-05T23:28:38.355Z,12.34
2022-10-05T23:31:08.744Z,12.33
2022-10-05T23:33:36.927Z,12.31
2022-10-05T23:36:07.785Z,12.30
2022-10-05T23:38:36.391Z,12.29
2022-10-05T23:41:05.623Z,12.27
2022-10-05T23:43:34.442Z,12.25
2022-10-05T23:46:04.178Z,12.24
2022-10-05T23:48:33.005Z,12.22
2022-10-05T23:51:01.190Z,12.21
2022-10-05T23:53:29.332Z,12.20
2022-10-05T23:55:57.539Z,12.19
2022-10-05T23:58:26.371Z,12.17
